sensor_id;sensor_type;location;lat;lon;timestamp;pressure;altitude;pressure_sealevel;temperature;humidity
62126;BME280;69591;53.282;6.150;2023-05-08T00:00:43;102253.78;;;19.33;68.40
62126;BME280;69591;53.282;6.150;2023-05-08T00:01:45;102249.44;;;19.31;68.34
62126;BME280;69591;53.282;6.150;2023-05-08T00:02:47;102250.22;;;19.32;68.54
62126;BME280;69591;53.282;6.150;2023-05-08T00:03:50;102245.56;;;19.33;68.60
62126;BME280;69591;53.282;6.150;2023-05-08T00:04:52;102250.22;;;19.32;68.92
62126;BME280;69591;53.282;6.150;2023-05-08T00:05:53;102245.56;;;19.33;68.63
62126;BME280;69591;53.282;6.150;2023-05-08T00:06:55;102248.31;;;19.33;68.82
62126;BME280;69591;53.282;6.150;2023-05-08T00:07:56;102248.31;;;19.33;68.81
62126;BME280;69591;53.282;6.150;2023-05-08T00:08:58;102242.03;;;19.32;69.00
62126;BME280;69591;53.282;6.150;2023-05-08T00:09:59;102243.97;;;19.31;68.80
62126;BME280;69591;53.282;6.150;2023-05-08T00:11:01;102241.22;;;19.31;68.97
62126;BME280;69591;53.282;6.150;2023-05-08T00:12:02;102242.81;;;19.33;69.07
62126;BME280;69591;53.282;6.150;2023-05-08T00:13:04;102237.72;;;19.31;69.22
62126;BME280;69591;53.282;6.150;2023-05-08T00:14:05;102234.59;;;19.33;68.90
62126;BME280;69591;53.282;6.150;2023-05-08T00:15:08;102242.03;;;19.32;68.75
62126;BME280;69591;53.282;6.150;2023-05-08T00:16:09;102233.00;;;19.31;68.96
62126;BME280;69591;53.282;6.150;2023-05-08T00:17:12;102233.81;;;19.32;68.83
62126;BME280;69591;53.282;6.150;2023-05-08T00:18:14;102235.75;;;19.31;69.05
62126;BME280;69591;53.282;6.150;2023-05-08T00:19:15;102238.47;;;19.31;68.95
62126;BME280;69591;53.282;6.150;2023-05-08T00:20:16;102233.00;;;19.31;69.02
62126;BME280;69591;53.282;6.150;2023-05-08T00:21:18;102233.00;;;19.31;69.42
62126;BME280;69591;53.282;6.150;2023-05-08T00:22:19;102229.50;;;19.31;69.22
62126;BME280;69591;53.282;6.150;2023-05-08T00:23:21;102231.06;;;19.32;69.02
62126;BME280;69591;53.282;6.150;2023-05-08T00:24:22;102229.13;;;19.33;69.04
62126;BME280;69591;53.282;6.150;2023-05-08T00:25:24;102233.00;;;19.31;69.16
62126;BME280;69591;53.282;6.150;2023-05-08T00:26:25;102233.00;;;19.31;68.95
62126;BME280;69591;53.282;6.150;2023-05-08T00:27:27;102230.25;;;19.31;69.09
62126;BME280;69591;53.282;6.150;2023-05-08T00:28:28;102226.38;;;19.33;69.02
62126;BME280;69591;53.282;6.150;2023-05-08T00:29:29;102232.22;;;19.31;69.12
62126;BME280;69591;53.282;6.150;2023-05-08T00:30:31;102237.34;;;19.33;69.23
62126;BME280;69591;53.282;6.150;2023-05-08T00:31:32;102231.88;;;19.33;69.37
62126;BME280;69591;53.282;6.150;2023-05-08T00:32:35;102231.06;;;19.32;69.30
62126;BME280;69591;53.282;6.150;2023-05-08T00:33:37;102234.59;;;19.33;69.43
62126;BME280;69591;53.282;6.150;2023-05-08T00:34:38;102233.00;;;19.31;69.31
62126;BME280;69591;53.282;6.150;2023-05-08T00:35:40;102230.25;;;19.31;69.63
62126;BME280;69591;53.282;6.150;2023-05-08T00:36:41;102233.00;;;19.31;69.16
62126;BME280;69591;53.282;6.150;2023-05-08T00:37:43;102233.00;;;19.31;69.32
62126;BME280;69591;53.282;6.150;2023-05-08T00:38:44;102233.00;;;19.31;69.03
62126;BME280;69591;53.282;6.150;2023-05-08T00:39:46;102222.03;;;19.31;69.14
62126;BME280;69591;53.282;6.150;2023-05-08T00:40:47;102229.50;;;19.31;68.96
62126;BME280;69591;53.282;6.150;2023-05-08T00:41:49;102226.75;;;19.31;69.17
62126;BME280;69591;53.282;6.150;2023-05-08T00:42:50;102231.44;;;19.30;69.15
62126;BME280;69591;53.282;6.150;2023-05-08T00:43:52;102225.16;;;19.30;69.27
62126;BME280;69591;53.282;6.150;2023-05-08T00:44:53;102225.97;;;19.30;69.07
62126;BME280;69591;53.282;6.150;2023-05-08T00:45:55;102231.44;;;19.30;69.22
62126;BME280;69591;53.282;6.150;2023-05-08T00:46:57;102228.69;;;19.30;69.21
62126;BME280;69591;53.282;6.150;2023-05-08T00:48:00;102234.16;;;19.30;69.21
62126;BME280;69591;53.282;6.150;2023-05-08T00:49:02;102221.66;;;19.29;69.32
62126;BME280;69591;53.282;6.150;2023-05-08T00:50:05;102225.97;;;19.30;69.29
62126;BME280;69591;53.282;6.150;2023-05-08T00:51:07;102223.22;;;19.30;69.15
62126;BME280;69591;53.282;6.150;2023-05-08T00:52:09;102225.16;;;19.30;69.19
62126;BME280;69591;53.282;6.150;2023-05-08T00:53:11;102220.47;;;19.30;69.32
62126;BME280;69591;53.282;6.150;2023-05-08T00:54:12;102222.41;;;19.30;69.66
62126;BME280;69591;53.282;6.150;2023-05-08T00:55:14;102222.41;;;19.30;69.09
62126;BME280;69591;53.282;6.150;2023-05-08T00:56:16;102218.09;;;19.29;69.27
62126;BME280;69591;53.282;6.150;2023-05-08T00:57:18;102218.09;;;19.29;69.39
62126;BME280;69591;53.282;6.150;2023-05-08T00:58:21;102218.91;;;19.29;69.41
62126;BME280;69591;53.282;6.150;2023-05-08T00:59:23;102218.09;;;19.29;69.36
62126;BME280;69591;53.282;6.150;2023-05-08T01:00:25;102224.38;;;19.29;69.14
62126;BME280;69591;53.282;6.150;2023-05-08T01:01:26;102220.03;;;19.28;69.34
62126;BME280;69591;53.282;6.150;2023-05-08T01:02:28;102221.66;;;19.29;69.28
62126;BME280;69591;53.282;6.150;2023-05-08T01:03:32;102221.66;;;19.29;69.14
62126;BME280;69591;53.282;6.150;2023-05-08T01:04:35;102215.72;;;19.27;69.16
62126;BME280;69591;53.282;6.150;2023-05-08T01:05:37;102210.22;;;19.27;69.10
62126;BME280;69591;53.282;6.150;2023-05-08T01:06:39;102217.31;;;19.28;69.14
62126;BME280;69591;53.282;6.150;2023-05-08T01:07:40;102222.78;;;19.28;69.25
62126;BME280;69591;53.282;6.150;2023-05-08T01:08:42;102215.72;;;19.27;69.19
62126;BME280;69591;53.282;6.150;2023-05-08T01:09:44;102216.88;;;19.26;69.09
62126;BME280;69591;53.282;6.150;2023-05-08T01:10:47;102221.19;;;19.27;69.27
62126;BME280;69591;53.282;6.150;2023-05-08T01:11:51;102225.84;;;19.27;69.25
62126;BME280;69591;53.282;6.150;2023-05-08T01:12:58;102223.91;;;19.27;69.29
62126;BME280;69591;53.282;6.150;2023-05-08T01:14:06;102226.66;;;19.27;69.27
62126;BME280;69591;53.282;6.150;2023-05-08T01:15:13;102222.34;;;19.26;69.32
62126;BME280;69591;53.282;6.150;2023-05-08T01:16:16;102222.34;;;19.26;69.25
62126;BME280;69591;53.282;6.150;2023-05-08T01:17:21;102221.53;;;19.26;69.19
62126;BME280;69591;53.282;6.150;2023-05-08T01:18:26;102227.03;;;19.26;69.19
62126;BME280;69591;53.282;6.150;2023-05-08T01:19:40;102225.84;;;19.27;69.23
62126;BME280;69591;53.282;6.150;2023-05-08T01:20:44;102225.09;;;19.26;69.27
62126;BME280;69591;53.282;6.150;2023-05-08T01:21:48;102227.03;;;19.26;69.09
62126;BME280;69591;53.282;6.150;2023-05-08T01:22:58;102231.69;;;19.25;69.10
62126;BME280;69591;53.282;6.150;2023-05-08T01:24:24;102228.97;;;19.25;69.00
62126;BME280;69591;53.282;6.150;2023-05-08T01:25:41;102232.88;;;19.24;69.03
62126;BME280;69591;53.282;6.150;2023-05-08T01:26:50;102227.41;;;19.24;69.02
62126;BME280;69591;53.282;6.150;2023-05-08T01:28:03;102227.41;;;19.24;69.03
62126;BME280;69591;53.282;6.150;2023-05-08T01:31:00;102225.78;;;19.23;68.91
62126;BME280;69591;53.282;6.150;2023-05-08T01:32:09;102224.22;;;19.22;68.98
62126;BME280;69591;53.282;6.150;2023-05-08T01:33:14;102220.31;;;19.23;69.13
62126;BME280;69591;53.282;6.150;2023-05-08T01:34:18;102223.06;;;19.23;69.20
62126;BME280;69591;53.282;6.150;2023-05-08T01:35:23;102214.84;;;19.23;68.97
62126;BME280;69591;53.282;6.150;2023-05-08T01:36:28;102224.22;;;19.22;68.93
62126;BME280;69591;53.282;6.150;2023-05-08T01:37:37;102224.22;;;19.22;68.88
62126;BME280;69591;53.282;6.150;2023-05-08T01:38:41;102228.53;;;19.23;69.20
62126;BME280;69591;53.282;6.150;2023-05-08T01:39:50;102221.47;;;19.22;69.00
62126;BME280;69591;53.282;6.150;2023-05-08T01:40:56;102225.38;;;19.21;69.27
62126;BME280;69591;53.282;6.150;2023-05-08T01:42:06;102226.16;;;19.22;69.13
62126;BME280;69591;53.282;6.150;2023-05-08T01:43:11;102224.22;;;19.22;69.15
62126;BME280;69591;53.282;6.150;2023-05-08T01:44:14;102224.22;;;19.22;69.09
62126;BME280;69591;53.282;6.150;2023-05-08T01:45:18;102228.91;;;19.22;69.08
62126;BME280;69591;53.282;6.150;2023-05-08T01:46:21;102230.88;;;19.21;69.16
62126;BME280;69591;53.282;6.150;2023-05-08T01:47:26;102236.34;;;19.21;69.18
62126;BME280;69591;53.282;6.150;2023-05-08T01:48:31;102244.56;;;19.21;68.92
62126;BME280;69591;53.282;6.150;2023-05-08T01:49:36;102238.28;;;19.21;69.24
62126;BME280;69591;53.282;6.150;2023-05-08T01:50:39;102244.56;;;19.21;68.75
62126;BME280;69591;53.282;6.150;2023-05-08T01:51:44;102240.22;;;19.20;68.82
62126;BME280;69591;53.282;6.150;2023-05-08T01:52:47;102244.91;;;19.20;68.79
62126;BME280;69591;53.282;6.150;2023-05-08T01:53:50;102246.84;;;19.19;68.71
62126;BME280;69591;53.282;6.150;2023-05-08T01:54:54;102246.06;;;19.19;68.71
62126;BME280;69591;53.282;6.150;2023-05-08T01:55:59;102251.53;;;19.19;68.64
62126;BME280;69591;53.282;6.150;2023-05-08T01:57:01;102246.06;;;19.19;68.71
62126;BME280;69591;53.282;6.150;2023-05-08T01:58:05;102249.16;;;19.17;68.78
62126;BME280;69591;53.282;6.150;2023-05-08T01:59:07;102253.06;;;19.16;68.69
62126;BME280;69591;53.282;6.150;2023-05-08T02:00:11;102251.91;;;19.17;68.51
62126;BME280;69591;53.282;6.150;2023-05-08T02:01:13;102253.06;;;19.16;68.64
62126;BME280;69591;53.282;6.150;2023-05-08T02:02:15;102253.06;;;19.16;68.33
62126;BME280;69591;53.282;6.150;2023-05-08T02:03:19;102255.81;;;19.16;68.26
62126;BME280;69591;53.282;6.150;2023-05-08T02:04:22;102256.94;;;19.15;68.36
62126;BME280;69591;53.282;6.150;2023-05-08T02:05:25;102254.19;;;19.15;68.20
62126;BME280;69591;53.282;6.150;2023-05-08T02:06:28;102256.16;;;19.15;68.40
62126;BME280;69591;53.282;6.150;2023-05-08T02:07:31;102260.84;;;19.14;68.25
62126;BME280;69591;53.282;6.150;2023-05-08T02:08:34;102250.25;;;19.13;68.25
62126;BME280;69591;53.282;6.150;2023-05-08T02:09:37;102251.06;;;19.13;68.25
62126;BME280;69591;53.282;6.150;2023-05-08T02:10:39;102248.31;;;19.13;68.27
62126;BME280;69591;53.282;6.150;2023-05-08T02:11:41;102254.94;;;19.12;68.14
62126;BME280;69591;53.282;6.150;2023-05-08T02:12:44;102256.09;;;19.11;68.37
62126;BME280;69591;53.282;6.150;2023-05-08T02:13:47;102256.09;;;19.11;68.24
62126;BME280;69591;53.282;6.150;2023-05-08T02:14:49;102256.09;;;19.11;68.08
62126;BME280;69591;53.282;6.150;2023-05-08T02:15:53;102255.28;;;19.11;68.39
62126;BME280;69591;53.282;6.150;2023-05-08T02:16:57;102261.56;;;19.11;68.28
62126;BME280;69591;53.282;6.150;2023-05-08T02:18:00;102267.06;;;19.11;68.24
62126;BME280;69591;53.282;6.150;2023-05-08T02:19:03;102261.56;;;19.11;68.19
62126;BME280;69591;53.282;6.150;2023-05-08T02:20:06;102268.22;;;19.10;68.29
62126;BME280;69591;53.282;6.150;2023-05-08T02:21:07;102270.94;;;19.10;68.25
62126;BME280;69591;53.282;6.150;2023-05-08T02:22:09;102263.88;;;19.09;68.31
62126;BME280;69591;53.282;6.150;2023-05-08T02:23:11;102265.47;;;19.10;68.30
62126;BME280;69591;53.282;6.150;2023-05-08T02:24:13;102265.84;;;19.09;68.50
62126;BME280;69591;53.282;6.150;2023-05-08T02:25:15;102263.88;;;19.09;68.34
62126;BME280;69591;53.282;6.150;2023-05-08T02:26:17;102274.06;;;19.09;68.29
62126;BME280;69591;53.282;6.150;2023-05-08T02:27:19;102278.72;;;19.08;68.22
62126;BME280;69591;53.282;6.150;2023-05-08T02:28:21;102269.72;;;19.08;68.33
62126;BME280;69591;53.282;6.150;2023-05-08T02:29:23;102284.22;;;19.08;68.11
62126;BME280;69591;53.282;6.150;2023-05-08T02:30:25;102277.16;;;19.07;68.23
62126;BME280;69591;53.282;6.150;2023-05-08T02:31:28;102277.16;;;19.07;68.23
62126;BME280;69591;53.282;6.150;2023-05-08T02:32:29;102271.69;;;19.07;68.17
62126;BME280;69591;53.282;6.150;2023-05-08T02:33:32;102274.41;;;19.07;68.16
62126;BME280;69591;53.282;6.150;2023-05-08T02:34:35;102281.84;;;19.07;68.13
62126;BME280;69591;53.282;6.150;2023-05-08T02:35:42;102275.56;;;19.06;68.13
62126;BME280;69591;53.282;6.150;2023-05-08T02:36:44;102277.16;;;19.07;68.14
62126;BME280;69591;53.282;6.150;2023-05-08T02:37:47;102275.56;;;19.06;68.23
62126;BME280;69591;53.282;6.150;2023-05-08T02:38:50;102276.34;;;19.07;68.10
62126;BME280;69591;53.282;6.150;2023-05-08T02:39:52;102274.41;;;19.07;68.22
62126;BME280;69591;53.282;6.150;2023-05-08T02:40:57;102278.28;;;19.06;68.10
62126;BME280;69591;53.282;6.150;2023-05-08T02:42:00;102271.25;;;19.05;68.28
62126;BME280;69591;53.282;6.150;2023-05-08T02:43:02;102281.03;;;19.06;68.36
62126;BME280;69591;53.282;6.150;2023-05-08T02:44:04;102281.03;;;19.06;68.26
62126;BME280;69591;53.282;6.150;2023-05-08T02:45:06;102273.97;;;19.05;68.38
62126;BME280;69591;53.282;6.150;2023-05-08T02:46:09;102273.97;;;19.05;68.43
62126;BME280;69591;53.282;6.150;2023-05-08T02:47:14;102279.47;;;19.05;68.32
62126;BME280;69591;53.282;6.150;2023-05-08T02:48:21;102273.97;;;19.05;68.13
62126;BME280;69591;53.282;6.150;2023-05-08T02:49:24;102268.50;;;19.05;68.25
62126;BME280;69591;53.282;6.150;2023-05-08T02:50:31;102270.44;;;19.05;68.24
62126;BME280;69591;53.282;6.150;2023-05-08T02:51:36;102262.22;;;19.05;68.41
62126;BME280;69591;53.282;6.150;2023-05-08T02:52:41;102263.03;;;19.05;68.39
62126;BME280;69591;53.282;6.150;2023-05-08T02:53:45;102261.44;;;19.04;68.27
62126;BME280;69591;53.282;6.150;2023-05-08T02:54:50;102262.22;;;19.05;68.37
62126;BME280;69591;53.282;6.150;2023-05-08T02:55:57;102254.03;;;19.05;68.39
62126;BME280;69591;53.282;6.150;2023-05-08T02:57:05;102251.28;;;19.05;68.51
62126;BME280;69591;53.282;6.150;2023-05-08T02:58:11;102250.47;;;19.04;68.62
62126;BME280;69591;53.282;6.150;2023-05-08T02:59:15;102257.56;;;19.05;68.66
62126;BME280;69591;53.282;6.150;2023-05-08T03:00:19;102256.75;;;19.05;68.68
62126;BME280;69591;53.282;6.150;2023-05-08T03:01:23;102248.53;;;19.05;68.92
62126;BME280;69591;53.282;6.150;2023-05-08T03:02:27;102252.09;;;19.05;68.96
62126;BME280;69591;53.282;6.150;2023-05-08T03:03:34;102247.38;;;19.06;68.92
62126;BME280;69591;53.282;6.150;2023-05-08T03:14:44;102243.88;;;19.05;68.87
62126;BME280;69591;53.282;6.150;2023-05-08T03:15:49;102241.13;;;19.05;68.93
62126;BME280;69591;53.282;6.150;2023-05-08T03:16:52;102247.38;;;19.06;68.99
62126;BME280;69591;53.282;6.150;2023-05-08T03:21:55;102250.13;;;19.06;69.06
62126;BME280;69591;53.282;6.150;2023-05-08T03:22:57;102252.09;;;19.05;69.06
62126;BME280;69591;53.282;6.150;2023-05-08T03:24:01;102252.09;;;19.05;69.07
62126;BME280;69591;53.282;6.150;2023-05-08T03:25:04;102251.28;;;19.05;68.96
62126;BME280;69591;53.282;6.150;2023-05-08T03:26:08;102243.88;;;19.05;69.07
62126;BME280;69591;53.282;6.150;2023-05-08T03:27:10;102252.09;;;19.05;68.88
62126;BME280;69591;53.282;6.150;2023-05-08T03:28:12;102249.34;;;19.05;68.91
62126;BME280;69591;53.282;6.150;2023-05-08T03:29:14;102256.75;;;19.05;68.87
62126;BME280;69591;53.282;6.150;2023-05-08T03:30:17;102253.22;;;19.04;68.76
62126;BME280;69591;53.282;6.150;2023-05-08T03:31:27;102249.34;;;19.05;68.70
62126;BME280;69591;53.282;6.150;2023-05-08T03:32:32;102248.53;;;19.05;68.64
62126;BME280;69591;53.282;6.150;2023-05-08T03:33:35;102239.53;;;19.04;68.66
62126;BME280;69591;53.282;6.150;2023-05-08T03:34:37;102240.34;;;19.05;68.69
62126;BME280;69591;53.282;6.150;2023-05-08T03:35:39;102239.53;;;19.04;68.86
62126;BME280;69591;53.282;6.150;2023-05-08T03:36:42;102239.53;;;19.04;68.80
62126;BME280;69591;53.282;6.150;2023-05-08T03:37:44;102239.53;;;19.04;68.84
62126;BME280;69591;53.282;6.150;2023-05-08T03:38:46;102233.28;;;19.04;68.93
62126;BME280;69591;53.282;6.150;2023-05-08T03:39:47;102242.28;;;19.04;68.98
62126;BME280;69591;53.282;6.150;2023-05-08T03:40:48;102238.75;;;19.04;69.04
62126;BME280;69591;53.282;6.150;2023-05-08T03:41:50;102239.53;;;19.04;69.18
62126;BME280;69591;53.282;6.150;2023-05-08T03:42:51;102245.00;;;19.04;69.17
62126;BME280;69591;53.282;6.150;2023-05-08T03:43:53;102235.22;;;19.03;69.01
62126;BME280;69591;53.282;6.150;2023-05-08T03:44:55;102245.00;;;19.04;68.94
62126;BME280;69591;53.282;6.150;2023-05-08T03:45:58;102239.53;;;19.04;68.93
62126;BME280;69591;53.282;6.150;2023-05-08T03:47:01;102235.22;;;19.03;68.77
62126;BME280;69591;53.282;6.150;2023-05-08T03:48:04;102239.53;;;19.04;68.73
62126;BME280;69591;53.282;6.150;2023-05-08T03:49:07;102237.97;;;19.03;68.81
62126;BME280;69591;53.282;6.150;2023-05-08T03:50:09;102232.47;;;19.03;68.77
62126;BME280;69591;53.282;6.150;2023-05-08T03:51:11;102229.75;;;19.03;68.94
62126;BME280;69591;53.282;6.150;2023-05-08T03:52:13;102234.06;;;19.04;68.83
62126;BME280;69591;53.282;6.150;2023-05-08T03:53:15;102227.81;;;19.04;69.04
62126;BME280;69591;53.282;6.150;2023-05-08T03:54:16;102232.47;;;19.03;68.85
62126;BME280;69591;53.282;6.150;2023-05-08T03:55:18;102229.75;;;19.03;68.89
62126;BME280;69591;53.282;6.150;2023-05-08T03:56:20;102227.00;;;19.03;68.85
62126;BME280;69591;53.282;6.150;2023-05-08T03:57:23;102231.69;;;19.03;68.73
62126;BME280;69591;53.282;6.150;2023-05-08T03:58:27;102225.06;;;19.04;68.57
62126;BME280;69591;53.282;6.150;2023-05-08T03:59:37;102222.34;;;19.04;68.73
62126;BME280;69591;53.282;6.150;2023-05-08T04:00:42;102226.22;;;19.03;68.70
62126;BME280;69591;53.282;6.150;2023-05-08T04:01:47;102221.53;;;19.03;68.80
62126;BME280;69591;53.282;6.150;2023-05-08T04:02:51;102221.53;;;19.03;68.84
62126;BME280;69591;53.282;6.150;2023-05-08T04:03:58;102221.53;;;19.03;68.90
62126;BME280;69591;53.282;6.150;2023-05-08T04:05:04;102230.13;;;19.02;68.90
62126;BME280;69591;53.282;6.150;2023-05-08T04:06:11;102225.44;;;19.02;69.01
62126;BME280;69591;53.282;6.150;2023-05-08T04:07:17;102228.19;;;19.02;69.30
62126;BME280;69591;53.282;6.150;2023-05-08T04:08:21;102229.31;;;19.01;68.88
62126;BME280;69591;53.282;6.150;2023-05-08T04:09:26;102230.91;;;19.02;68.85
62126;BME280;69591;53.282;6.150;2023-05-08T04:10:32;102226.22;;;19.03;68.95
62126;BME280;69591;53.282;6.150;2023-05-08T04:11:40;102222.69;;;19.02;68.93
62126;BME280;69591;53.282;6.150;2023-05-08T04:12:44;102223.84;;;19.01;69.01
62126;BME280;69591;53.282;6.150;2023-05-08T04:13:50;102216.06;;;19.03;68.98
62126;BME280;69591;53.282;6.150;2023-05-08T04:14:54;102225.44;;;19.02;69.07
62126;BME280;69591;53.282;6.150;2023-05-08T04:16:00;102217.22;;;19.02;68.94
62126;BME280;69591;53.282;6.150;2023-05-08T04:17:08;102220.72;;;19.03;69.05
62126;BME280;69591;53.282;6.150;2023-05-08T04:18:11;102220.72;;;19.03;68.99
62126;BME280;69591;53.282;6.150;2023-05-08T04:19:17;102223.84;;;19.01;69.02
62126;BME280;69591;53.282;6.150;2023-05-08T04:20:20;102228.94;;;19.03;69.17
62126;BME280;69591;53.282;6.150;2023-05-08T04:21:23;102230.91;;;19.02;69.08
62126;BME280;69591;53.282;6.150;2023-05-08T04:22:27;102230.91;;;19.02;68.96
62126;BME280;69591;53.282;6.150;2023-05-08T04:23:29;102230.91;;;19.02;68.93
62126;BME280;69591;53.282;6.150;2023-05-08T04:24:32;102230.91;;;19.02;68.95
62126;BME280;69591;53.282;6.150;2023-05-08T04:25:35;102230.13;;;19.02;68.81
62126;BME280;69591;53.282;6.150;2023-05-08T04:26:37;102233.66;;;19.02;68.97
62126;BME280;69591;53.282;6.150;2023-05-08T04:27:39;102235.59;;;19.02;68.66
62126;BME280;69591;53.282;6.150;2023-05-08T04:28:41;102230.13;;;19.02;68.82
62126;BME280;69591;53.282;6.150;2023-05-08T04:29:43;102230.13;;;19.02;68.79
62126;BME280;69591;53.282;6.150;2023-05-08T04:30:45;102234.78;;;19.01;68.67
62126;BME280;69591;53.282;6.150;2023-05-08T04:31:47;102234.78;;;19.01;68.81
62126;BME280;69591;53.282;6.150;2023-05-08T04:32:50;102241.06;;;19.02;68.91
62126;BME280;69591;53.282;6.150;2023-05-08T04:33:52;102232.84;;;19.02;68.72
62126;BME280;69591;53.282;6.150;2023-05-08T04:34:54;102235.59;;;19.02;68.68
62126;BME280;69591;53.282;6.150;2023-05-08T04:35:58;102237.53;;;19.01;68.67
62126;BME280;69591;53.282;6.150;2023-05-08T04:37:01;102237.88;;;19.00;68.67
62126;BME280;69591;53.282;6.150;2023-05-08T04:38:03;102238.69;;;19.00;68.75
62126;BME280;69591;53.282;6.150;2023-05-08T04:39:05;102245.72;;;19.01;68.81
62126;BME280;69591;53.282;6.150;2023-05-08T04:40:07;102243.38;;;19.00;68.78
62126;BME280;69591;53.282;6.150;2023-05-08T04:41:09;102241.44;;;19.00;68.78
62126;BME280;69591;53.282;6.150;2023-05-08T04:42:11;102241.44;;;19.00;68.89
62126;BME280;69591;53.282;6.150;2023-05-08T04:43:12;102247.69;;;19.01;68.72
62126;BME280;69591;53.282;6.150;2023-05-08T04:44:14;102249.63;;;19.00;68.55
62126;BME280;69591;53.282;6.150;2023-05-08T04:45:16;102244.16;;;19.00;68.52
62126;BME280;69591;53.282;6.150;2023-05-08T04:46:17;102245.31;;;18.99;68.60
62126;BME280;69591;53.282;6.150;2023-05-08T04:47:19;102250.81;;;18.99;68.76
62126;BME280;69591;53.282;6.150;2023-05-08T04:48:22;102246.09;;;19.00;68.68
62126;BME280;69591;53.282;6.150;2023-05-08T04:49:24;102242.59;;;18.99;68.92
62126;BME280;69591;53.282;6.150;2023-05-08T04:50:25;102248.84;;;19.00;68.82
62126;BME280;69591;53.282;6.150;2023-05-08T04:51:27;102242.59;;;18.99;68.68
62126;BME280;69591;53.282;6.150;2023-05-08T04:52:29;102248.06;;;18.99;68.77
62126;BME280;69591;53.282;6.150;2023-05-08T04:53:30;102248.06;;;18.99;68.71
62126;BME280;69591;53.282;6.150;2023-05-08T04:54:32;102253.53;;;18.99;68.71
62126;BME280;69591;53.282;6.150;2023-05-08T04:55:34;102255.91;;;19.01;68.59
62126;BME280;69591;53.282;6.150;2023-05-08T04:56:35;102248.84;;;19.00;68.75
62126;BME280;69591;53.282;6.150;2023-05-08T04:57:37;102248.06;;;18.99;68.75
62126;BME280;69591;53.282;6.150;2023-05-08T04:58:38;102253.53;;;18.99;68.63
62126;BME280;69591;53.282;6.150;2023-05-08T04:59:40;102259.78;;;19.00;68.69
62126;BME280;69591;53.282;6.150;2023-05-08T05:00:41;102250.00;;;18.99;68.70
62126;BME280;69591;53.282;6.150;2023-05-08T05:01:44;102259.78;;;19.00;68.92
62126;BME280;69591;53.282;6.150;2023-05-08T05:02:45;102255.13;;;19.00;68.56
62126;BME280;69591;53.282;6.150;2023-05-08T05:03:48;102257.06;;;19.00;68.59
62126;BME280;69591;53.282;6.150;2023-05-08T05:04:50;102254.31;;;19.00;68.68
62126;BME280;69591;53.282;6.150;2023-05-08T05:05:55;102260.94;;;18.99;68.70
62126;BME280;69591;53.282;6.150;2023-05-08T05:06:57;102259.78;;;19.00;68.69
62126;BME280;69591;53.282;6.150;2023-05-08T05:07:59;102264.50;;;18.99;68.87
62126;BME280;69591;53.282;6.150;2023-05-08T05:09:00;102261.75;;;18.99;68.82
62126;BME280;69591;53.282;6.150;2023-05-08T05:10:02;102257.06;;;19.00;68.84
62126;BME280;69591;53.282;6.150;2023-05-08T05:11:05;102259.00;;;18.99;68.84
62126;BME280;69591;53.282;6.150;2023-05-08T05:12:07;102262.53;;;19.00;69.05
62126;BME280;69591;53.282;6.150;2023-05-08T05:13:09;102259.00;;;18.99;68.99
62126;BME280;69591;53.282;6.150;2023-05-08T05:14:11;102259.78;;;19.00;69.04
62126;BME280;69591;53.282;6.150;2023-05-08T05:15:12;102260.59;;;19.00;69.07
62126;BME280;69591;53.282;6.150;2023-05-08T05:16:14;102261.75;;;18.99;68.80
62126;BME280;69591;53.282;6.150;2023-05-08T05:17:16;102274.28;;;19.00;69.09
62126;BME280;69591;53.282;6.150;2023-05-08T05:18:17;102268.81;;;19.00;69.12
62126;BME280;69591;53.282;6.150;2023-05-08T05:19:21;102260.59;;;19.00;69.14
62126;BME280;69591;53.282;6.150;2023-05-08T05:20:22;102272.34;;;19.01;69.16
62126;BME280;69591;53.282;6.150;2023-05-08T05:21:24;102263.31;;;19.00;69.19
62126;BME280;69591;53.282;6.150;2023-05-08T05:22:25;102271.53;;;19.00;69.24
62126;BME280;69591;53.282;6.150;2023-05-08T05:23:27;102266.88;;;19.01;69.39
62126;BME280;69591;53.282;6.150;2023-05-08T05:24:28;102266.50;;;19.02;69.34
62126;BME280;69591;53.282;6.150;2023-05-08T05:25:30;102267.63;;;19.01;69.26
62126;BME280;69591;53.282;6.150;2023-05-08T05:27:50;102268.44;;;19.02;69.24
62126;BME280;69591;53.282;6.150;2023-05-08T05:28:52;102263.75;;;19.02;69.34
62126;BME280;69591;53.282;6.150;2023-05-08T05:29:53;102271.97;;;19.02;69.51
62126;BME280;69591;53.282;6.150;2023-05-08T05:30:55;102282.94;;;19.02;69.05
62126;BME280;69591;53.282;6.150;2023-05-08T05:31:57;102271.97;;;19.02;69.03
62126;BME280;69591;53.282;6.150;2023-05-08T05:32:58;102276.66;;;19.02;69.03
62126;BME280;69591;53.282;6.150;2023-05-08T05:34:00;102285.66;;;19.02;68.80
62126;BME280;69591;53.282;6.150;2023-05-08T05:35:03;102274.72;;;19.02;68.86
62126;BME280;69591;53.282;6.150;2023-05-08T05:36:05;102280.97;;;19.03;68.76
62126;BME280;69591;53.282;6.150;2023-05-08T05:37:06;102280.19;;;19.02;68.90
62126;BME280;69591;53.282;6.150;2023-05-08T05:38:08;102274.72;;;19.02;68.76
62126;BME280;69591;53.282;6.150;2023-05-08T05:39:09;102280.97;;;19.03;68.86
62126;BME280;69591;53.282;6.150;2023-05-08T05:40:12;102274.72;;;19.02;68.84
62126;BME280;69591;53.282;6.150;2023-05-08T05:41:14;102282.13;;;19.02;68.71
62126;BME280;69591;53.282;6.150;2023-05-08T05:42:15;102280.19;;;19.02;68.63
62126;BME280;69591;53.282;6.150;2023-05-08T05:43:17;102284.06;;;19.01;68.71
62126;BME280;69591;53.282;6.150;2023-05-08T05:44:19;102278.59;;;19.01;68.67
62126;BME280;69591;53.282;6.150;2023-05-08T05:45:21;102285.66;;;19.02;68.68
62126;BME280;69591;53.282;6.150;2023-05-08T05:46:23;102286.03;;;19.01;68.68
62126;BME280;69591;53.282;6.150;2023-05-08T05:47:24;102293.06;;;19.02;68.67